createdAt,value
2024-02-08T06:30:49.935Z,98110.78
2024-02-08T06:33:27.058Z,98110.13
2024-02-08T06:35:58.587Z,98106.13
2024-02-08T06:38:53.337Z,98104.75
2024-02-08T06:41:47.132Z,98107.50
2024-02-08T06:44:33.468Z,98107.38
2024-02-08T06:47:19.985Z,98118.22
2024-02-08T06:50:06.282Z,98093.19
2024-02-08T06:52:53.034Z,98110.53
2024-02-08T06:55:39.270Z,98113.97
2024-02-08T06:58:25.486Z,98114.50
2024-02-08T07:01:11.745Z,98119.19
2024-02-08T07:03:58.095Z,98126.91
2024-02-08T07:06:44.101Z,98120.41
2024-02-08T07:09:30.370Z,98129.53
2024-02-08T07:12:16.553Z,98124.69
2024-02-08T07:15:02.526Z,98126.75
2024-02-08T07:17:48.749Z,98140.63
2024-02-08T07:20:34.855Z,98146.38
2024-02-08T07:23:21.033Z,98146.66
2024-02-08T07:26:07.292Z,98141.41
2024-02-08T07:28:53.540Z,98150.75
2024-02-08T07:31:39.536Z,98157.34
2024-02-08T07:34:26.092Z,98171.69
2024-02-08T07:37:12.382Z,98157.78
2024-02-08T07:39:48.153Z,98171.09
2024-02-08T07:42:21.917Z,98169.84
2024-02-08T07:44:56.574Z,98187.06
2024-02-08T07:47:26.835Z,98170.34
2024-02-08T07:50:06.290Z,98180.97
2024-02-08T07:52:57.232Z,98189.25
2024-02-08T07:55:31.920Z,98187.44
2024-02-08T07:57:59.713Z,98180.13
2024-02-08T08:00:44.103Z,98190.44
2024-02-08T08:03:17.707Z,98170.25
2024-02-08T08:05:47.050Z,98194.72
2024-02-08T08:08:27.589Z,98200.78
2024-02-08T08:11:07.294Z,98199.94
2024-02-08T08:13:51.955Z,98168.69
2024-02-08T08:16:33.069Z,98214.59
2024-02-08T08:19:26.131Z,98210.31
2024-02-08T08:21:59.914Z,98229.06
2024-02-08T08:24:28.344Z,98227.50
2024-02-08T08:27:08.488Z,98224.47
2024-02-08T08:29:46.033Z,98229.13
2024-02-08T08:32:32.631Z,98227.25
2024-02-08T08:35:19.846Z,98243.13
2024-02-08T08:37:50.406Z,98242.38
2024-02-08T08:40:47.541Z,98241.78
2024-02-08T08:43:24.545Z,98246.22
2024-02-08T08:46:01.291Z,98247.59
2024-02-08T08:48:35.654Z,98246.88
2024-02-08T08:51:13.787Z,98258.19
2024-02-08T08:53:45.884Z,98252.34
2024-02-08T08:56:14.254Z,98254.75
2024-02-08T08:58:43.387Z,98254.34
2024-02-08T09:01:23.995Z,98252.38
2024-02-08T09:04:24.324Z,98250.53
2024-02-08T09:06:52.137Z,98266.69
2024-02-08T09:09:29.708Z,98260.78
2024-02-08T09:12:00.591Z,98270.16
2024-02-08T09:14:32.502Z,98276.06
2024-02-08T09:17:23.477Z,98274.78
2024-02-08T09:19:49.571Z,98284.06
2024-02-08T09:22:19.761Z,98281.69
2024-02-08T09:24:48.144Z,98288.69
2024-02-08T09:27:20.906Z,98283.31
2024-02-08T09:29:58.245Z,98290.34
2024-02-08T09:32:45.034Z,98293.66
2024-02-08T09:35:17.998Z,98298.88
2024-02-08T09:37:50.145Z,98295.88
2024-02-08T09:40:22.213Z,98264.75
2024-02-08T09:42:58.054Z,98282.19
2024-02-08T09:45:34.037Z,98294.63
2024-02-08T09:48:08.323Z,98300.59
2024-02-08T09:50:38.174Z,98292.44
2024-02-08T09:53:19.946Z,98286.22
2024-02-08T09:55:58.312Z,98261.06
2024-02-08T09:58:42.931Z,98255.94
2024-02-08T10:01:32.199Z,98292.44
2024-02-08T10:04:07.821Z,98292.59
2024-02-08T10:06:47.894Z,98288.69
2024-02-08T10:09:35.339Z,98293.22
2024-02-08T10:12:12.996Z,98269.28
2024-02-08T10:14:44.120Z,98301.31
2024-02-08T10:17:26.535Z,98304.78
2024-02-08T10:20:15.263Z,98301.47
2024-02-08T10:22:58.658Z,98299.63
2024-02-08T10:25:45.537Z,98295.28
2024-02-08T10:28:27.481Z,98311.84
2024-02-08T10:31:14.255Z,98306.69
2024-02-08T10:33:49.565Z,98314.13
2024-02-08T10:36:22.232Z,98311.75
2024-02-08T10:38:58.537Z,98317.78
2024-02-08T10:41:40.455Z,98312.75
2024-02-08T10:44:19.754Z,98325.50
2024-02-08T10:46:50.803Z,98328.91
2024-02-08T10:49:24.808Z,98333.50
2024-02-08T10:52:02.576Z,98339.88
2024-02-08T10:54:55.520Z,98338.16
2024-02-08T10:57:41.693Z,98338.50
2024-02-08T11:00:30.348Z,98334.16
2024-02-08T11:03:10.258Z,98345.94
2024-02-08T11:05:57.720Z,98344.03
2024-02-08T11:08:26.436Z,98352.56
2024-02-08T11:11:00.645Z,98354.50
2024-02-08T11:13:39.494Z,98357.44
2024-02-08T11:16:22.998Z,98353.03
2024-02-08T11:18:54.833Z,98354.06
2024-02-08T11:21:44.304Z,98365.09
2024-02-08T11:24:30.349Z,98336.22
2024-02-08T11:27:04.271Z,98346.59
2024-02-08T11:29:48.676Z,98365.16
2024-02-08T11:32:18.933Z,98363.34
2024-02-08T11:34:47.849Z,98351.09
2024-02-08T11:37:17.805Z,98353.28
2024-02-08T11:39:49.045Z,98356.25
2024-02-08T11:42:19.163Z,98357.69
2024-02-08T11:44:47.852Z,98357.91
2024-02-08T11:47:24.784Z,98332.19
2024-02-08T11:50:02.823Z,98355.47
2024-02-08T11:52:33.554Z,98350.03
2024-02-08T11:55:11.924Z,98357.09
2024-02-08T11:57:44.678Z,98355.72
2024-02-08T12:00:19.876Z,98353.19
2024-02-08T12:03:03.176Z,98353.94
2024-02-08T12:05:32.048Z,98351.63
2024-02-08T12:08:10.883Z,98354.91
2024-02-08T12:10:40.321Z,98348.81
2024-02-08T12:13:15.583Z,98332.94
2024-02-08T12:15:57.917Z,98349.72
2024-02-08T12:18:29.646Z,98356.31
2024-02-08T12:21:01.797Z,98351.50
2024-02-08T12:23:33.957Z,98353.59
2024-02-08T12:26:05.777Z,98350.00
2024-02-08T12:28:36.721Z,98348.09
2024-02-08T12:31:05.270Z,98336.47
2024-02-08T12:33:34.258Z,98317.38
2024-02-08T12:36:02.168Z,98352.78
2024-02-08T12:38:32.359Z,98357.34
2024-02-08T12:41:07.979Z,98361.63
2024-02-08T12:43:36.237Z,98358.25
2024-02-08T12:46:03.806Z,98368.22
2024-02-08T12:48:31.525Z,98362.44
2024-02-08T12:51:05.111Z,98366.25
2024-02-08T12:53:32.829Z,98362.94
2024-02-08T12:56:07.800Z,98362.78
2024-02-08T12:58:35.566Z,98362.13
2024-02-08T13:01:07.196Z,98351.84
2024-02-08T13:03:38.668Z,98371.59
2024-02-08T13:06:13.320Z,98335.13
2024-02-08T13:08:47.195Z,98380.06
2024-02-08T13:11:23.928Z,98376.91
2024-02-08T13:13:51.502Z,98375.59
2024-02-08T13:16:19.069Z,98371.09
2024-02-08T13:18:56.448Z,98372.06
2024-02-08T13:21:26.609Z,98378.22
2024-02-08T13:23:57.491Z,98372.44
2024-02-08T13:26:33.147Z,98378.06
2024-02-08T13:29:05.601Z,98372.06
2024-02-08T13:31:33.369Z,98378.88
2024-02-08T13:34:03.168Z,98384.50
2024-02-08T13:36:30.935Z,98387.84
2024-02-08T13:38:58.569Z,98385.16
2024-02-08T13:41:26.224Z,98396.31
2024-02-08T13:43:54.430Z,98386.63
2024-02-08T13:46:23.582Z,98386.91
2024-02-08T13:48:51.227Z,98399.56
2024-02-08T13:51:18.913Z,98398.44
2024-02-08T13:53:46.994Z,98395.28
2024-02-08T13:56:15.267Z,98397.50
2024-02-08T13:58:43.222Z,98391.66
2024-02-08T14:01:13.247Z,98392.22
2024-02-08T14:03:41.275Z,98387.44
2024-02-08T14:06:11.470Z,98401.09
2024-02-08T14:08:44.685Z,98394.81
2024-02-08T14:11:18.164Z,98399.25
2024-02-08T14:13:46.170Z,98395.50
2024-02-08T14:16:17.935Z,98394.47
2024-02-08T14:18:55.526Z,98396.06
2024-02-08T14:21:27.814Z,98402.00
2024-02-08T14:24:02.996Z,98391.91
2024-02-08T14:26:38.974Z,98385.09
2024-02-08T14:29:13.460Z,98375.53
2024-02-08T14:31:43.741Z,98382.41
2024-02-08T14:34:16.027Z,98391.44
2024-02-08T14:36:52.759Z,98380.03
2024-02-08T14:39:31.165Z,98379.91
2024-02-08T14:42:19.352Z,98369.50
2024-02-08T14:44:55.393Z,98391.19
2024-02-08T14:47:23.750Z,98388.88
2024-02-08T14:50:01.885Z,98386.41
2024-02-08T14:52:46.480Z,98391.50
2024-02-08T14:55:27.508Z,98394.63
2024-02-08T14:58:01.197Z,98402.41
2024-02-08T15:00:32.381Z,98406.50
2024-02-08T15:03:12.567Z,98411.50
2024-02-08T15:05:50.063Z,98328.00
2024-02-08T15:08:24.426Z,98414.09
2024-02-08T15:11:10.196Z,98416.91
2024-02-08T15:13:56.088Z,98410.69
2024-02-08T15:16:24.084Z,98414.03
2024-02-08T15:18:55.640Z,98416.75
2024-02-08T15:21:27.295Z,98407.91
2024-02-08T15:24:09.672Z,98418.75
2024-02-08T15:26:38.905Z,98368.59
2024-02-08T15:29:06.793Z,98419.41
2024-02-08T15:31:40.385Z,98424.16
2024-02-08T15:34:14.232Z,98418.88
2024-02-08T15:37:00.897Z,98423.47
2024-02-08T15:39:48.755Z,98427.66
2024-02-08T15:42:21.576Z,98421.03
2024-02-08T15:44:54.544Z,98421.03
2024-02-08T15:47:22.823Z,98422.94
2024-02-08T15:49:56.177Z,98422.34
2024-02-08T15:52:27.753Z,98420.44
2024-02-08T15:55:00.648Z,98402.91
2024-02-08T15:57:34.619Z,98415.13
2024-02-08T16:00:22.909Z,98417.88
2024-02-08T16:02:53.384Z,98419.56
2024-02-08T16:05:23.650Z,98415.88
2024-02-08T16:07:59.075Z,98424.16
2024-02-08T16:10:33.560Z,98423.31
2024-02-08T16:13:07.659Z,98425.81
2024-02-08T16:15:57.788Z,98427.72
2024-02-08T16:18:31.222Z,98428.78
2024-02-08T16:21:00.798Z,98423.31
2024-02-08T16:23:29.179Z,98431.25
2024-02-08T16:26:23.502Z,98432.19
2024-02-08T16:28:52.438Z,98430.78
2024-02-08T16:31:20.219Z,98431.22
2024-02-08T16:33:49.988Z,98428.47
2024-02-08T16:36:28.865Z,98429.03
2024-02-08T16:39:16.894Z,98436.91
2024-02-08T16:41:50.442Z,98425.84
2024-02-08T16:44:19.103Z,98428.50
2024-02-08T16:46:59.461Z,98430.31
2024-02-08T16:49:32.130Z,98433.91
2024-02-08T16:52:05.981Z,98427.91
2024-02-08T16:54:37.167Z,98418.16
2024-02-08T16:57:08.783Z,98414.22
2024-02-08T16:59:49.546Z,98413.34
2024-02-08T17:02:26.219Z,98423.41
2024-02-08T17:05:11.594Z,98409.34
2024-02-08T17:07:45.761Z,98422.06
2024-02-08T17:10:35.534Z,98416.44
2024-02-08T17:13:38.795Z,98407.25
2024-02-08T17:16:37.425Z,98410.56
2024-02-08T17:19:25.273Z,98381.78
2024-02-08T17:21:52.936Z,98418.03
2024-02-08T17:24:43.535Z,98407.66
2024-02-08T17:27:27.676Z,98413.69
2024-02-08T17:30:05.751Z,98414.50
2024-02-08T17:32:34.711Z,98393.13
2024-02-08T17:35:02.637Z,98405.25
2024-02-08T17:37:39.740Z,98419.00
2024-02-08T17:40:20.873Z,98409.72
2024-02-08T17:42:51.371Z,98416.09
2024-02-08T17:45:21.602Z,98418.81
2024-02-08T17:47:49.815Z,98419.88
2024-02-08T17:50:31.238Z,98426.84
2024-02-08T17:53:01.280Z,98422.66
2024-02-08T17:55:37.904Z,98417.47
2024-02-08T17:58:14.331Z,98421.97
2024-02-08T18:00:43.704Z,98415.81
2024-02-08T18:03:16.877Z,98419.59
2024-02-08T18:05:49.221Z,98420.66
2024-02-08T18:08:18.412Z,98426.16
2024-02-08T18:10:47.822Z,98434.19
2024-02-08T18:13:18.914Z,98437.84
2024-02-08T18:15:52.381Z,98426.13
2024-02-08T18:18:24.747Z,98440.25
2024-02-08T18:20:59.829Z,98414.13
2024-02-08T18:23:34.610Z,98442.56
2024-02-08T18:26:05.535Z,98444.66
2024-02-08T18:28:35.692Z,98446.22
2024-02-08T18:31:07.803Z,98450.09
2024-02-08T18:33:36.668Z,98447.00
2024-02-08T18:36:06.716Z,98431.63
2024-02-08T18:38:35.150Z,98454.47
2024-02-08T18:41:03.219Z,98415.69
2024-02-08T18:43:32.519Z,98454.06
